Time;durP1;ratioP1;P1;durP2;ratioP2;P2;SDS_P1;SDS_P2;PMS_P1;PMS_P2;Temp;Humidity;BMP_temperature;BMP_pressure;BME280_temperature;BME280_humidity;BME280_pressure;Samples;Min_cycle;Max_cycle;Signal;HPM_P1;HPM_P2
2022/09/12 00:07:27;;;;;;;7.87;7.07;;;15.90;98.90;;;;;;20664512;28;20237;-72
2022/09/12 00:17:28;;;;;;;7.60;6.80;;;15.80;99.10;;;;;;20666707;28;20641;-71
2022/09/12 00:27:30;;;;;;;29.97;19.53;;;15.80;98.80;;;;;;20678153;28;20750;-72
2022/09/12 00:37:33;;;;;;;19.63;13.80;;;15.70;98.90;;;;;;20677428;28;20210;-72
2022/09/12 00:47:36;;;;;;;11.23;8.43;;;15.40;98.90;;;;;;20659527;28;20233;-71
2022/09/12 00:57:56;;;;;;;11.50;7.10;;;15.40;99.10;;;;;;20676372;28;20210;-72
2022/09/12 01:08:01;;;;;;;14.40;9.10;;;15.30;99.20;;;;;;20675011;28;20245;-71
2022/09/12 01:18:49;;;;;;;13.57;9.10;;;15.50;99.30;;;;;;20657458;28;20237;-71
2022/09/12 01:29:17;;;;;;;22.43;10.70;;;15.60;99.30;;;;;;20673043;28;20260;-69
2022/09/12 01:39:49;;;;;;;16.10;9.53;;;15.50;99.60;;;;;;20672844;28;20651;-71
2022/09/12 01:50:05;;;;;;;14.90;9.07;;;15.50;99.90;;;;;;20671952;28;20576;-71
2022/09/12 02:00:10;;;;;;;15.47;8.97;;;15.60;99.90;;;;;;20671569;28;20210;-70
2022/09/12 02:10:23;;;;;;;14.23;8.77;;;15.50;99.90;;;;;;20670340;28;20234;-69
2022/09/12 02:20:33;;;;;;;28.33;9.93;;;15.60;99.90;;;;;;20669624;28;20291;-69
2022/09/12 02:31:02;;;;;;;19.97;8.10;;;15.50;99.90;;;;;;20669265;28;20234;-69
2022/09/12 02:41:04;;;;;;;10.27;8.33;;;15.50;99.90;;;;;;20668014;28;20240;-71
2022/09/12 02:51:06;;;;;;;18.87;9.00;;;15.40;99.90;;;;;;20667608;28;20270;-71
2022/09/12 03:01:31;;;;;;;13.27;7.60;;;15.30;99.90;;;;;;20667425;28;20210;-69
2022/09/12 03:12:02;;;;;;;15.67;9.20;;;15.20;99.90;;;;;;20636354;28;20776;-71
2022/09/12 03:22:21;;;;;;;13.97;7.87;;;15.10;99.90;;;;;;20666322;28;20206;-72
2022/09/12 03:32:48;;;;;;;16.10;9.03;;;15.00;99.90;;;;;;20665756;28;20248;-72
2022/09/12 03:42:50;;;;;;;26.67;8.50;;;14.90;99.90;;;;;;20665940;28;20659;-71
2022/09/12 03:52:52;;;;;;;11.53;10.20;;;14.90;99.90;;;;;;20668037;28;20292;-71
2022/09/12 04:02:57;;;;;;;17.20;8.43;;;14.90;99.90;;;;;;20680397;28;20271;-70
2022/09/12 04:12:59;;;;;;;30.87;7.30;;;15.00;99.90;;;;;;20679533;28;20249;-72
2022/09/12 04:23:01;;;;;;;9.80;7.93;;;15.00;99.90;;;;;;20678381;28;20210;-72
2022/09/12 04:33:02;;;;;;;21.97;7.53;;;14.90;99.90;;;;;;20677619;28;20233;-72
2022/09/12 04:43:08;;;;;;;10.13;7.50;;;14.90;99.90;;;;;;20677007;28;20300;-71
2022/09/12 04:53:15;;;;;;;11.10;8.37;;;14.90;99.90;;;;;;20674695;28;20308;-71
2022/09/12 05:03:16;;;;;;;15.47;8.70;;;14.90;99.90;;;;;;20675090;28;20225;-71
2022/09/12 05:13:18;;;;;;;14.63;9.40;;;14.90;99.90;;;;;;20674626;28;20249;-71
2022/09/12 05:23:20;;;;;;;9.07;7.63;;;14.90;99.90;;;;;;20673258;28;20271;-73
2022/09/12 05:33:22;;;;;;;13.43;8.17;;;15.00;99.90;;;;;;20672499;28;20241;-71
2022/09/12 05:43:25;;;;;;;11.67;8.80;;;15.10;99.90;;;;;;20671809;28;20568;-73
2022/09/12 05:53:29;;;;;;;11.17;9.07;;;15.10;99.90;;;;;;20670629;28;20717;-72
2022/09/12 06:03:31;;;;;;;22.33;9.63;;;15.30;99.90;;;;;;20668543;28;20213;-73
2022/09/12 06:13:41;;;;;;;12.57;9.77;;;15.30;99.90;;;;;;20667615;28;20234;-75
2022/09/12 06:23:45;;;;;;;15.50;10.30;;;15.20;99.90;;;;;;20666492;28;20225;-72
2022/09/12 06:33:51;;;;;;;14.73;10.30;;;15.30;99.90;;;;;;20666859;28;20214;-72
2022/09/12 06:43:53;;;;;;;18.70;10.13;;;15.30;99.90;;;;;;20665414;28;20251;-71
2022/09/12 06:53:56;;;;;;;13.60;9.80;;;15.30;99.90;;;;;;20665846;28;20210;-71
2022/09/12 07:04:01;;;;;;;14.33;10.30;;;15.40;99.90;;;;;;20665734;28;20231;-72
2022/09/12 07:14:04;;;;;;;13.43;9.90;;;15.40;99.90;;;;;;20665289;28;20248;-72
2022/09/12 07:24:08;;;;;;;13.20;9.40;;;15.50;99.90;;;;;;20648063;28;20686;-71
2022/09/12 07:34:10;;;;;;;16.90;10.00;;;15.60;99.90;;;;;;20677994;28;20624;-71
2022/09/12 07:44:12;;;;;;;15.83;10.50;;;15.70;99.90;;;;;;20680873;28;20581;-71
2022/09/12 07:54:14;;;;;;;13.57;9.30;;;15.80;99.90;;;;;;20679188;28;20238;-71
2022/09/12 08:04:16;;;;;;;15.87;10.37;;;15.90;99.90;;;;;;20679001;28;20596;-71
2022/09/12 08:14:17;;;;;;;12.70;9.73;;;16.00;99.90;;;;;;20678153;28;20243;-72
2022/09/12 08:24:19;;;;;;;14.23;9.73;;;16.10;99.90;;;;;;20677124;28;20236;-73
2022/09/12 08:34:21;;;;;;;13.47;9.67;;;16.20;99.80;;;;;;20676906;28;20216;-71
2022/09/12 08:44:52;;;;;;;12.60;10.10;;;16.30;99.80;;;;;;20675558;28;20697;-73
2022/09/12 08:54:55;;;;;;;11.40;9.10;;;16.60;99.60;;;;;;20670166;28;20265;-73
2022/09/12 09:05:35;;;;;;;15.10;10.80;;;16.80;99.50;;;;;;20673560;28;20244;-73
2022/09/12 09:15:40;;;;;;;14.83;10.63;;;17.30;99.20;;;;;;20673019;28;20249;-71
2022/09/12 09:25:58;;;;;;;14.80;10.70;;;17.50;98.70;;;;;;20672139;28;20304;-71
2022/09/12 09:36:26;;;;;;;13.63;10.10;;;17.70;98.40;;;;;;20654778;28;20213;-72
2022/09/12 09:46:28;;;;;;;12.80;10.40;;;18.00;98.10;;;;;;20671227;28;20237;-72
2022/09/12 09:56:32;;;;;;;12.57;10.30;;;18.20;97.80;;;;;;20669817;28;20240;-72
2022/09/12 10:06:36;;;;;;;12.27;10.03;;;18.50;97.50;;;;;;20669262;28;20238;-71
2022/09/12 10:16:52;;;;;;;12.73;10.13;;;18.70;97.20;;;;;;20668805;28;20286;-71
2022/09/12 10:27:22;;;;;;;17.90;11.73;;;19.00;96.70;;;;;;20667747;28;20380;-71
2022/09/12 10:37:31;;;;;;;17.70;13.27;;;19.10;96.30;;;;;;20664826;28;20658;-70
2022/09/12 10:47:32;;;;;;;10.93;8.17;;;19.30;96.10;;;;;;20666489;28;20235;-71
2022/09/12 10:57:54;;;;;;;9.10;7.80;;;19.70;96.00;;;;;;20666403;28;20208;-72
2022/09/12 11:08:02;;;;;;;9.77;7.23;;;19.90;95.60;;;;;;20626026;28;20286;-72
2022/09/12 11:18:18;;;;;;;10.53;8.13;;;20.10;95.40;;;;;;20665319;28;20240;-72
2022/09/12 11:28:55;;;;;;;10.07;7.70;;;20.30;95.00;;;;;;20665424;28;20240;-71
2022/09/12 11:39:14;;;;;;;8.47;7.37;;;20.50;94.60;;;;;;20634347;28;20217;-72
2022/09/12 11:49:24;;;;;;;9.20;7.10;;;20.80;94.10;;;;;;20662289;28;20296;-71
2022/09/12 11:59:32;;;;;;;9.37;6.90;;;21.10;93.50;;;;;;20660621;28;20658;-70
2022/09/12 12:09:46;;;;;;;7.13;5.93;;;21.30;92.90;;;;;;20662642;28;20256;-72
2022/09/12 12:19:58;;;;;;;7.50;6.47;;;21.40;92.50;;;;;;20673590;28;20296;-73
2022/09/12 12:30:29;;;;;;;7.03;5.30;;;21.60;91.90;;;;;;20675456;28;20273;-75
2022/09/12 12:40:31;;;;;;;7.30;4.70;;;21.80;90.90;;;;;;20676338;28;20237;-71
2022/09/12 12:50:33;;;;;;;5.07;4.57;;;22.00;89.50;;;;;;20675072;28;20284;-69
2022/09/12 13:00:38;;;;;;;6.57;4.90;;;22.30;86.00;;;;;;20674311;28;20253;-77
2022/09/12 13:10:49;;;;;;;5.43;4.70;;;22.50;82.70;;;;;;20672853;28;20314;-73
2022/09/12 13:21:10;;;;;;;9.43;4.83;;;22.70;80.90;;;;;;20673528;28;20780;-69
2022/09/12 13:31:25;;;;;;;5.87;5.20;;;22.80;79.40;;;;;;20671641;28;20698;-71
2022/09/12 13:41:55;;;;;;;6.27;4.40;;;22.90;78.80;;;;;;20671590;28;20230;-79
2022/09/12 13:52:22;;;;;;;7.47;4.90;;;23.10;77.50;;;;;;20653570;28;20233;-73
2022/09/12 14:02:27;;;;;;;6.43;4.30;;;23.30;76.20;;;;;;20669947;28;20214;-72
2022/09/12 14:12:34;;;;;;;5.20;4.43;;;23.30;74.70;;;;;;20652520;28;20257;-72
2022/09/12 14:22:37;;;;;;;11.83;4.43;;;23.80;70.70;;;;;;20667557;28;20198;-73
2022/09/12 14:32:39;;;;;;;4.63;4.23;;;23.80;71.20;;;;;;20664709;28;20230;-70
2022/09/12 14:42:41;;;;;;;5.47;4.33;;;24.10;70.60;;;;;;20666926;28;20214;-71
2022/09/12 14:52:43;;;;;;;4.17;3.77;;;24.00;69.80;;;;;;20665809;28;20269;-72
2022/09/12 15:02:46;;;;;;;4.50;4.07;;;23.80;69.40;;;;;;20665844;28;20206;-71
2022/09/12 15:12:48;;;;;;;4.63;4.03;;;24.00;69.10;;;;;;20665506;28;20241;-71
2022/09/12 15:22:51;;;;;;;5.53;3.90;;;24.60;67.70;;;;;;20666104;28;20209;-70
2022/09/12 15:32:53;;;;;;;4.43;3.70;;;24.90;66.90;;;;;;20665576;28;20304;-71
2022/09/12 15:42:55;;;;;;;6.33;4.13;;;24.10;67.30;;;;;;20665487;28;20210;-71
2022/09/12 15:52:57;;;;;;;4.93;4.43;;;23.70;67.80;;;;;;20674345;28;20233;-70
2022/09/12 16:02:59;;;;;;;6.13;4.13;;;23.40;68.60;;;;;;20680008;28;20209;-68
2022/09/12 16:13:03;;;;;;;6.33;4.50;;;23.20;69.00;;;;;;20679361;28;20269;-72
2022/09/12 16:23:05;;;;;;;6.83;4.43;;;23.00;69.60;;;;;;20678789;28;20245;-71
2022/09/12 16:33:07;;;;;;;4.70;4.30;;;22.90;70.10;;;;;;20677852;28;20253;-70
2022/09/12 16:43:09;;;;;;;5.10;4.43;;;22.70;70.70;;;;;;20675635;28;20213;-72
2022/09/12 16:53:10;;;;;;;6.93;4.30;;;22.60;71.30;;;;;;20674516;28;20297;-70
2022/09/12 17:03:12;;;;;;;5.27;4.73;;;22.50;72.00;;;;;;20673333;28;20209;-68
2022/09/12 17:13:14;;;;;;;29.53;5.23;;;22.40;72.50;;;;;;20675474;28;20241;-74
2022/09/12 17:23:16;;;;;;;7.63;4.70;;;22.30;73.20;;;;;;20674398;28;20206;-81
2022/09/12 17:33:18;;;;;;;6.50;4.60;;;22.10;73.70;;;;;;20674064;28;20234;-73
2022/09/12 17:43:19;;;;;;;9.97;4.67;;;21.90;74.30;;;;;;20674765;28;20310;-78
2022/09/12 17:53:21;;;;;;;5.73;5.00;;;21.80;75.30;;;;;;20672704;28;20242;-78
2022/09/12 18:03:24;;;;;;;6.07;5.27;;;21.60;76.50;;;;;;20670952;28;20571;-79
2022/09/12 18:13:25;;;;;;;7.07;5.17;;;21.30;77.70;;;;;;20669111;28;20273;-80
2022/09/12 18:23:27;;;;;;;6.90;5.30;;;21.10;79.00;;;;;;20667089;28;20213;-72
2022/09/12 18:33:29;;;;;;;6.10;5.50;;;20.90;80.40;;;;;;20669307;28;20341;-80
2022/09/12 18:43:30;;;;;;;8.70;6.00;;;20.80;81.60;;;;;;20670338;28;20218;-73
2022/09/12 18:53:33;;;;;;;11.00;6.03;;;20.60;83.10;;;;;;20665806;28;20243;-73
2022/09/12 19:03:35;;;;;;;7.53;6.03;;;20.40;84.20;;;;;;20621717;28;20217;-72
2022/09/12 19:13:39;;;;;;;8.43;6.43;;;20.20;85.40;;;;;;20584069;28;20249;-73
2022/09/12 19:23:40;;;;;;;10.63;6.37;;;20.00;86.80;;;;;;20588494;28;20917;-71
2022/09/12 19:33:43;;;;;;;9.20;6.23;;;19.80;88.40;;;;;;20599989;28;20252;-72
2022/09/12 19:43:45;;;;;;;6.80;6.10;;;19.70;89.70;;;;;;20600078;28;20217;-72
2022/09/12 19:53:48;;;;;;;11.37;6.90;;;19.50;90.20;;;;;;20598536;28;20237;-72
2022/09/12 20:03:52;;;;;;;8.13;6.70;;;19.40;90.60;;;;;;20597437;28;20215;-72
2022/09/12 20:13:54;;;;;;;9.23;7.53;;;19.30;90.90;;;;;;20597415;28;20251;-72
2022/09/12 20:24:00;;;;;;;10.40;6.97;;;19.10;91.30;;;;;;20596544;28;20216;-71
2022/09/12 20:34:02;;;;;;;10.03;7.03;;;19.00;91.80;;;;;;20595201;28;20240;-71
2022/09/12 20:44:04;;;;;;;7.77;6.93;;;18.80;92.20;;;;;;20595310;28;20215;-71
2022/09/12 20:54:06;;;;;;;8.10;6.70;;;18.80;92.50;;;;;;20594395;28;20242;-71
2022/09/12 21:04:07;;;;;;;7.57;6.77;;;18.60;92.90;;;;;;20593449;28;20251;-71
2022/09/12 21:14:15;;;;;;;11.40;7.60;;;18.40;93.60;;;;;;20592297;28;20332;-71
2022/09/12 21:24:17;;;;;;;12.47;7.37;;;18.30;94.20;;;;;;20592274;28;20210;-70
2022/09/12 21:34:18;;;;;;;9.27;7.27;;;18.20;94.40;;;;;;20590183;28;20578;-71
2022/09/12 21:44:20;;;;;;;8.50;7.07;;;18.00;94.80;;;;;;20591995;28;20679;-71
2022/09/12 21:54:21;;;;;;;8.77;7.10;;;17.90;95.20;;;;;;20591157;28;20285;-71
2022/09/12 22:04:24;;;;;;;8.90;6.33;;;17.80;95.30;;;;;;20590766;28;20262;-72
2022/09/12 22:14:25;;;;;;;11.17;7.30;;;17.70;95.50;;;;;;20589799;28;20253;-71
2022/09/12 22:24:27;;;;;;;9.87;7.30;;;17.70;95.70;;;;;;20589728;28;20210;-71
2022/09/12 22:34:29;;;;;;;8.27;7.20;;;17.50;95.80;;;;;;20588592;28;20238;-72
2022/09/12 22:44:31;;;;;;;9.63;7.00;;;17.40;95.90;;;;;;20588063;28;20329;-71
2022/09/12 22:54:32;;;;;;;12.77;7.87;;;17.30;96.50;;;;;;20587667;28;20238;-71
2022/09/12 23:04:34;;;;;;;8.57;6.80;;;17.20;96.40;;;;;;20586765;28;20655;-71
2022/09/12 23:14:36;;;;;;;14.43;7.47;;;17.10;96.50;;;;;;20586084;28;20274;-70
2022/09/12 23:24:38;;;;;;;8.50;7.50;;;16.90;96.60;;;;;;20586569;28;20213;-71
2022/09/12 23:34:40;;;;;;;10.33;6.83;;;16.90;96.80;;;;;;20586002;28;20266;-72
2022/09/12 23:44:42;;;;;;;11.43;7.43;;;16.80;96.80;;;;;;20585429;28;20284;-71
2022/09/12 23:54:43;;;;;;;9.60;7.30;;;16.70;97.00;;;;;;20585228;28;20233;-71
